CheckWX is a tool to help pilots better visualize weather data.  It is not intended as a substitute for an official pre-flight weather briefing.

19:48:11 UTC

KSIY METAR
Siskiyou County Airport
Montague, California, USA
Current

55 mins ago

KSIY 261853Z AUTO VRB05KT 10SM OVC019 09/05 A2980 RMK AO2 SLP104 T00890050
Observed
May-26 @ 18:53 UTC
Wind
  • Variable at 5 KTS
Visibility
10 SM
Flight Rules
MVFR
Cloud Levels
  • Overcast at 1,900' AGL
Temperature
C / 48°F
Dewpoint
C / 41°F
Humidity
76%
Altimeter
29.8" Hg
Pressure
1009.12 hPa
Previous

2 hours ago

KSIY 261753Z AUTO 19004KT 10SM SCT012 OVC021 08/06 A2979 RMK AO2 SLP098 60002 T00780056 10078 20039 51021
Observed
May-26 @ 17:53 UTC
Wind
  • 190° at 4 KTS
Visibility
10 SM
Flight Rules
MVFR
Cloud Levels
  • Scattered at 1,200' AGL
  • Overcast at 2,100' AGL
Temperature
C / 46°F
Dewpoint
C / 43°F
Humidity
87%
Altimeter
29.79" Hg
Pressure
1008.82 hPa
Previous

2 hours ago

KSIY 261741Z AUTO 18005KT 10SM BKN015 OVC021 07/04 A2978 RMK AO2 T00720044
Observed
May-26 @ 17:41 UTC
Wind
  • 180° at 5 KTS
Visibility
10 SM
Flight Rules
MVFR
Cloud Levels
  • Broken at 1,500' AGL
  • Overcast at 2,100' AGL
Temperature
C / 45°F
Dewpoint
C / 39°F
Humidity
81%
Altimeter
29.78" Hg
Pressure
1008.42 hPa